sensor_id;sensor_type;location;lat;lon;timestamp;temperature;humidity
32749;DHT22;19119;52.474;13.710;2023-02-28T00:00:23;1.20;99.90
32749;DHT22;19119;52.474;13.710;2023-02-28T00:02:49;1.30;99.90
32749;DHT22;19119;52.474;13.710;2023-02-28T00:05:17;1.20;99.90
32749;DHT22;19119;52.474;13.710;2023-02-28T00:07:43;1.30;99.90
32749;DHT22;19119;52.474;13.710;2023-02-28T00:10:11;1.30;99.90
32749;DHT22;19119;52.474;13.710;2023-02-28T00:12:37;1.30;99.90
32749;DHT22;19119;52.474;13.710;2023-02-28T00:15:08;1.30;99.90
32749;DHT22;19119;52.474;13.710;2023-02-28T00:17:34;1.30;99.90
32749;DHT22;19119;52.474;13.710;2023-02-28T00:19:59;1.30;99.90
32749;DHT22;19119;52.474;13.710;2023-02-28T00:22:28;1.30;99.90
32749;DHT22;19119;52.474;13.710;2023-02-28T00:24:54;1.30;99.90
32749;DHT22;19119;52.474;13.710;2023-02-28T00:27:19;1.30;99.90
32749;DHT22;19119;52.474;13.710;2023-02-28T00:29:46;1.30;99.90
32749;DHT22;19119;52.474;13.710;2023-02-28T00:32:12;1.30;99.90
32749;DHT22;19119;52.474;13.710;2023-02-28T00:34:38;1.30;99.90
32749;DHT22;19119;52.474;13.710;2023-02-28T00:37:08;1.20;99.90
32749;DHT22;19119;52.474;13.710;2023-02-28T00:39:35;1.20;99.90
32749;DHT22;19119;52.474;13.710;2023-02-28T00:42:02;1.30;99.90
32749;DHT22;19119;52.474;13.710;2023-02-28T00:44:28;1.30;99.90
32749;DHT22;19119;52.474;13.710;2023-02-28T00:46:54;1.20;99.90
32749;DHT22;19119;52.474;13.710;2023-02-28T00:49:21;1.20;99.90
32749;DHT22;19119;52.474;13.710;2023-02-28T00:51:46;1.20;99.90
32749;DHT22;19119;52.474;13.710;2023-02-28T00:54:12;1.20;99.90
32749;DHT22;19119;52.474;13.710;2023-02-28T00:56:38;1.20;99.90
32749;DHT22;19119;52.474;13.710;2023-02-28T00:59:03;1.10;99.90
32749;DHT22;19119;52.474;13.710;2023-02-28T01:01:29;1.00;99.90
32749;DHT22;19119;52.474;13.710;2023-02-28T01:03:54;1.00;99.90
32749;DHT22;19119;52.474;13.710;2023-02-28T01:06:20;0.90;99.90
32749;DHT22;19119;52.474;13.710;2023-02-28T01:08:45;0.90;99.90
32749;DHT22;19119;52.474;13.710;2023-02-28T01:11:13;0.70;99.90
32749;DHT22;19119;52.474;13.710;2023-02-28T01:13:40;0.60;99.90
32749;DHT22;19119;52.474;13.710;2023-02-28T01:16:06;0.60;99.90
32749;DHT22;19119;52.474;13.710;2023-02-28T01:18:32;0.70;99.90
32749;DHT22;19119;52.474;13.710;2023-02-28T01:20:58;0.60;99.90
32749;DHT22;19119;52.474;13.710;2023-02-28T01:23:24;0.60;99.90
32749;DHT22;19119;52.474;13.710;2023-02-28T01:25:51;0.60;99.90
32749;DHT22;19119;52.474;13.710;2023-02-28T01:28:17;0.60;99.90
32749;DHT22;19119;52.474;13.710;2023-02-28T01:30:42;0.50;99.90
32749;DHT22;19119;52.474;13.710;2023-02-28T01:33:08;0.40;99.90
32749;DHT22;19119;52.474;13.710;2023-02-28T01:35:34;0.40;99.90
32749;DHT22;19119;52.474;13.710;2023-02-28T01:38:00;0.50;99.90
32749;DHT22;19119;52.474;13.710;2023-02-28T01:40:26;0.40;99.90
32749;DHT22;19119;52.474;13.710;2023-02-28T01:42:51;0.40;99.90
32749;DHT22;19119;52.474;13.710;2023-02-28T01:45:28;0.50;99.90
32749;DHT22;19119;52.474;13.710;2023-02-28T01:47:58;0.50;99.90
32749;DHT22;19119;52.474;13.710;2023-02-28T01:50:28;0.50;99.90
32749;DHT22;19119;52.474;13.710;2023-02-28T01:53:01;0.60;99.90
32749;DHT22;19119;52.474;13.710;2023-02-28T01:55:28;0.60;99.90
32749;DHT22;19119;52.474;13.710;2023-02-28T01:57:57;0.50;99.90
32749;DHT22;19119;52.474;13.710;2023-02-28T02:00:25;0.40;99.90
32749;DHT22;19119;52.474;13.710;2023-02-28T02:03:07;0.40;99.90
32749;DHT22;19119;52.474;13.710;2023-02-28T02:12:33;0.20;99.90
32749;DHT22;19119;52.474;13.710;2023-02-28T02:15:07;0.00;99.90
32749;DHT22;19119;52.474;13.710;2023-02-28T02:17:46;-0.10;99.90
32749;DHT22;19119;52.474;13.710;2023-02-28T02:20:46;-0.20;99.90
32749;DHT22;19119;52.474;13.710;2023-02-28T02:26:21;-0.30;99.90
32749;DHT22;19119;52.474;13.710;2023-02-28T02:34:56;-0.60;99.90
32749;DHT22;19119;52.474;13.710;2023-02-28T02:37:48;-0.60;99.90
32749;DHT22;19119;52.474;13.710;2023-02-28T02:43:03;-0.70;99.90
32749;DHT22;19119;52.474;13.710;2023-02-28T02:45:39;-0.80;99.90
32749;DHT22;19119;52.474;13.710;2023-02-28T02:48:10;-0.80;99.90
32749;DHT22;19119;52.474;13.710;2023-02-28T02:50:42;-0.90;99.90
32749;DHT22;19119;52.474;13.710;2023-02-28T02:53:09;-0.90;99.90
32749;DHT22;19119;52.474;13.710;2023-02-28T02:55:39;-1.00;99.90
32749;DHT22;19119;52.474;13.710;2023-02-28T02:58:16;-1.00;99.90
32749;DHT22;19119;52.474;13.710;2023-02-28T03:00:47;-1.10;99.90
32749;DHT22;19119;52.474;13.710;2023-02-28T03:03:13;-1.10;99.90
32749;DHT22;19119;52.474;13.710;2023-02-28T03:05:47;-1.20;99.90
32749;DHT22;19119;52.474;13.710;2023-02-28T03:08:13;-1.20;99.90
32749;DHT22;19119;52.474;13.710;2023-02-28T03:10:45;-1.30;99.90
32749;DHT22;19119;52.474;13.710;2023-02-28T03:13:43;-1.20;99.90
32749;DHT22;19119;52.474;13.710;2023-02-28T03:24:10;-1.40;99.90
32749;DHT22;19119;52.474;13.710;2023-02-28T03:26:45;-1.40;99.90
32749;DHT22;19119;52.474;13.710;2023-02-28T03:29:23;-1.50;99.90
32749;DHT22;19119;52.474;13.710;2023-02-28T03:31:57;-1.60;99.90
32749;DHT22;19119;52.474;13.710;2023-02-28T03:34:34;-1.60;99.90
32749;DHT22;19119;52.474;13.710;2023-02-28T03:37:08;-1.70;99.90
32749;DHT22;19119;52.474;13.710;2023-02-28T03:40:06;-1.70;99.90
32749;DHT22;19119;52.474;13.710;2023-02-28T03:42:36;-1.10;99.90
32749;DHT22;19119;52.474;13.710;2023-02-28T03:45:11;-1.70;99.90
32749;DHT22;19119;52.474;13.710;2023-02-28T03:50:36;-1.80;99.90
32749;DHT22;19119;52.474;13.710;2023-02-28T03:55:45;-1.90;99.90
32749;DHT22;19119;52.474;13.710;2023-02-28T04:01:38;-2.00;99.90
32749;DHT22;19119;52.474;13.710;2023-02-28T04:04:06;-2.00;99.90
32749;DHT22;19119;52.474;13.710;2023-02-28T04:06:34;-2.00;99.90
32749;DHT22;19119;52.474;13.710;2023-02-28T04:09:01;-2.00;99.90
32749;DHT22;19119;52.474;13.710;2023-02-28T04:11:38;-2.00;99.90
32749;DHT22;19119;52.474;13.710;2023-02-28T04:14:05;-2.10;99.90
32749;DHT22;19119;52.474;13.710;2023-02-28T04:16:36;-2.10;99.90
32749;DHT22;19119;52.474;13.710;2023-02-28T04:19:03;-2.20;99.90
32749;DHT22;19119;52.474;13.710;2023-02-28T04:21:36;-2.20;99.90
32749;DHT22;19119;52.474;13.710;2023-02-28T04:24:03;-2.20;99.90
32749;DHT22;19119;52.474;13.710;2023-02-28T04:26:33;-2.30;99.90
32749;DHT22;19119;52.474;13.710;2023-02-28T04:29:00;-2.30;99.90
32749;DHT22;19119;52.474;13.710;2023-02-28T04:31:26;-2.30;99.90
32749;DHT22;19119;52.474;13.710;2023-02-28T04:33:51;-2.30;99.90
32749;DHT22;19119;52.474;13.710;2023-02-28T04:36:17;-2.40;99.90
32749;DHT22;19119;52.474;13.710;2023-02-28T04:38:44;-2.40;99.90
32749;DHT22;19119;52.474;13.710;2023-02-28T04:41:10;-2.40;99.90
32749;DHT22;19119;52.474;13.710;2023-02-28T04:43:36;-2.40;99.90
32749;DHT22;19119;52.474;13.710;2023-02-28T04:46:04;-2.90;99.90
32749;DHT22;19119;52.474;13.710;2023-02-28T04:48:38;-2.50;99.90
32749;DHT22;19119;52.474;13.710;2023-02-28T04:51:07;-2.50;99.90
32749;DHT22;19119;52.474;13.710;2023-02-28T04:53:33;-2.50;99.90
32749;DHT22;19119;52.474;13.710;2023-02-28T04:55:59;-2.50;99.90
32749;DHT22;19119;52.474;13.710;2023-02-28T04:58:25;-2.50;99.90
32749;DHT22;19119;52.474;13.710;2023-02-28T05:00:54;-2.60;99.90
32749;DHT22;19119;52.474;13.710;2023-02-28T05:03:20;-2.60;99.90
32749;DHT22;19119;52.474;13.710;2023-02-28T05:05:47;-2.60;99.90
32749;DHT22;19119;52.474;13.710;2023-02-28T05:08:12;-2.60;99.90
32749;DHT22;19119;52.474;13.710;2023-02-28T05:10:38;-2.60;99.90
32749;DHT22;19119;52.474;13.710;2023-02-28T05:13:04;-2.70;99.90
32749;DHT22;19119;52.474;13.710;2023-02-28T05:15:29;-2.70;99.90
32749;DHT22;19119;52.474;13.710;2023-02-28T05:17:55;-2.70;99.90
32749;DHT22;19119;52.474;13.710;2023-02-28T05:20:21;-2.70;99.90
32749;DHT22;19119;52.474;13.710;2023-02-28T05:22:47;-2.70;99.90
32749;DHT22;19119;52.474;13.710;2023-02-28T05:25:17;-2.80;99.90
32749;DHT22;19119;52.474;13.710;2023-02-28T05:27:43;-2.80;99.90
32749;DHT22;19119;52.474;13.710;2023-02-28T05:30:10;-2.80;99.90
32749;DHT22;19119;52.474;13.710;2023-02-28T05:32:39;-2.90;99.90
32749;DHT22;19119;52.474;13.710;2023-02-28T05:35:10;-2.90;99.90
32749;DHT22;19119;52.474;13.710;2023-02-28T05:37:37;-2.90;99.90
32749;DHT22;19119;52.474;13.710;2023-02-28T05:40:03;-3.00;99.90
32749;DHT22;19119;52.474;13.710;2023-02-28T05:42:32;-3.00;99.90
32749;DHT22;19119;52.474;13.710;2023-02-28T05:44:58;-3.00;99.90
32749;DHT22;19119;52.474;13.710;2023-02-28T05:47:24;-3.10;99.90
32749;DHT22;19119;52.474;13.710;2023-02-28T05:49:49;-3.10;99.90
32749;DHT22;19119;52.474;13.710;2023-02-28T05:52:15;-3.10;99.90
32749;DHT22;19119;52.474;13.710;2023-02-28T05:54:41;-3.10;99.90
32749;DHT22;19119;52.474;13.710;2023-02-28T05:57:07;-3.10;99.90
32749;DHT22;19119;52.474;13.710;2023-02-28T05:59:32;-3.10;99.90
32749;DHT22;19119;52.474;13.710;2023-02-28T06:01:58;-3.20;99.90
32749;DHT22;19119;52.474;13.710;2023-02-28T06:04:23;-3.20;99.90
32749;DHT22;19119;52.474;13.710;2023-02-28T06:06:49;-3.10;99.90
32749;DHT22;19119;52.474;13.710;2023-02-28T06:09:16;-3.20;99.90
32749;DHT22;19119;52.474;13.710;2023-02-28T06:11:42;-3.10;99.90
32749;DHT22;19119;52.474;13.710;2023-02-28T06:14:16;-3.10;99.90
32749;DHT22;19119;52.474;13.710;2023-02-28T06:16:43;-3.10;99.90
32749;DHT22;19119;52.474;13.710;2023-02-28T06:19:09;-3.10;99.90
32749;DHT22;19119;52.474;13.710;2023-02-28T06:21:34;-3.10;99.90
32749;DHT22;19119;52.474;13.710;2023-02-28T06:24:00;-3.10;99.90
32749;DHT22;19119;52.474;13.710;2023-02-28T06:26:26;-3.10;99.90
32749;DHT22;19119;52.474;13.710;2023-02-28T06:28:52;-3.00;99.90
32749;DHT22;19119;52.474;13.710;2023-02-28T06:31:18;-3.00;99.90
32749;DHT22;19119;52.474;13.710;2023-02-28T06:33:45;-2.90;99.90
32749;DHT22;19119;52.474;13.710;2023-02-28T06:36:13;-2.90;99.90
32749;DHT22;19119;52.474;13.710;2023-02-28T06:38:39;-2.90;99.90
32749;DHT22;19119;52.474;13.710;2023-02-28T06:41:07;-2.90;99.90
32749;DHT22;19119;52.474;13.710;2023-02-28T06:43:35;-2.80;99.90
32749;DHT22;19119;52.474;13.710;2023-02-28T06:46:04;-2.80;99.90
32749;DHT22;19119;52.474;13.710;2023-02-28T06:48:30;-2.70;99.90
32749;DHT22;19119;52.474;13.710;2023-02-28T06:51:04;-2.60;99.90
32749;DHT22;19119;52.474;13.710;2023-02-28T06:53:30;-2.60;99.90
32749;DHT22;19119;52.474;13.710;2023-02-28T06:55:56;-2.50;99.90
32749;DHT22;19119;52.474;13.710;2023-02-28T06:58:21;-2.40;99.90
32749;DHT22;19119;52.474;13.710;2023-02-28T07:00:51;-2.30;99.90
32749;DHT22;19119;52.474;13.710;2023-02-28T07:03:17;-2.20;99.90
32749;DHT22;19119;52.474;13.710;2023-02-28T07:05:44;-2.10;99.90
32749;DHT22;19119;52.474;13.710;2023-02-28T07:08:10;-1.90;99.90
32749;DHT22;19119;52.474;13.710;2023-02-28T07:10:40;-1.80;99.90
32749;DHT22;19119;52.474;13.710;2023-02-28T07:13:08;-1.70;99.90
32749;DHT22;19119;52.474;13.710;2023-02-28T07:15:34;-1.50;99.90
32749;DHT22;19119;52.474;13.710;2023-02-28T07:18:00;-1.40;99.90
32749;DHT22;19119;52.474;13.710;2023-02-28T07:20:26;-1.30;99.90
32749;DHT22;19119;52.474;13.710;2023-02-28T07:22:51;-1.10;99.90
32749;DHT22;19119;52.474;13.710;2023-02-28T07:25:24;-1.00;99.90
32749;DHT22;19119;52.474;13.710;2023-02-28T07:27:51;-0.90;99.90
32749;DHT22;19119;52.474;13.710;2023-02-28T07:30:17;-0.80;99.90
32749;DHT22;19119;52.474;13.710;2023-02-28T07:32:43;-0.60;99.90
32749;DHT22;19119;52.474;13.710;2023-02-28T07:35:09;-0.60;99.90
32749;DHT22;19119;52.474;13.710;2023-02-28T07:37:34;-0.50;99.90
32749;DHT22;19119;52.474;13.710;2023-02-28T07:40:08;-0.20;99.90
32749;DHT22;19119;52.474;13.710;2023-02-28T07:42:38;-0.20;99.90
32749;DHT22;19119;52.474;13.710;2023-02-28T07:45:04;-0.10;99.90
32749;DHT22;19119;52.474;13.710;2023-02-28T07:47:31;0.10;99.90
32749;DHT22;19119;52.474;13.710;2023-02-28T07:49:57;0.20;99.90
32749;DHT22;19119;52.474;13.710;2023-02-28T07:52:23;0.30;99.90
32749;DHT22;19119;52.474;13.710;2023-02-28T07:54:50;0.50;99.90
32749;DHT22;19119;52.474;13.710;2023-02-28T07:57:16;0.60;99.90
32749;DHT22;19119;52.474;13.710;2023-02-28T07:59:41;0.80;99.90
32749;DHT22;19119;52.474;13.710;2023-02-28T08:02:12;0.90;99.90
32749;DHT22;19119;52.474;13.710;2023-02-28T08:04:38;1.10;99.90
32749;DHT22;19119;52.474;13.710;2023-02-28T08:07:04;1.10;99.90
32749;DHT22;19119;52.474;13.710;2023-02-28T08:09:29;1.40;99.90
32749;DHT22;19119;52.474;13.710;2023-02-28T08:11:55;1.60;99.90
32749;DHT22;19119;52.474;13.710;2023-02-28T08:14:21;1.90;99.90
32749;DHT22;19119;52.474;13.710;2023-02-28T08:16:47;2.00;99.90
32749;DHT22;19119;52.474;13.710;2023-02-28T08:19:12;2.10;99.90
32749;DHT22;19119;52.474;13.710;2023-02-28T08:21:38;2.40;99.90
32749;DHT22;19119;52.474;13.710;2023-02-28T08:24:04;2.80;99.90
32749;DHT22;19119;52.474;13.710;2023-02-28T08:26:29;2.90;99.90
32749;DHT22;19119;52.474;13.710;2023-02-28T08:28:55;3.30;99.90
32749;DHT22;19119;52.474;13.710;2023-02-28T08:31:20;3.50;99.90
32749;DHT22;19119;52.474;13.710;2023-02-28T08:33:46;3.70;99.90
32749;DHT22;19119;52.474;13.710;2023-02-28T08:36:14;3.80;99.90
32749;DHT22;19119;52.474;13.710;2023-02-28T08:38:40;4.00;99.90
32749;DHT22;19119;52.474;13.710;2023-02-28T08:41:09;4.00;99.90
32749;DHT22;19119;52.474;13.710;2023-02-28T08:43:35;4.40;99.90
32749;DHT22;19119;52.474;13.710;2023-02-28T08:46:01;4.50;99.90
32749;DHT22;19119;52.474;13.710;2023-02-28T08:48:27;4.80;99.90
32749;DHT22;19119;52.474;13.710;2023-02-28T08:51:05;5.10;99.90
32749;DHT22;19119;52.474;13.710;2023-02-28T08:53:31;5.50;99.90
32749;DHT22;19119;52.474;13.710;2023-02-28T08:55:58;5.60;99.90
32749;DHT22;19119;52.474;13.710;2023-02-28T08:58:25;5.70;99.90
32749;DHT22;19119;52.474;13.710;2023-02-28T09:00:51;5.80;99.90
32749;DHT22;19119;52.474;13.710;2023-02-28T09:03:16;6.10;99.90
32749;DHT22;19119;52.474;13.710;2023-02-28T09:05:52;6.10;99.90
32749;DHT22;19119;52.474;13.710;2023-02-28T09:08:18;6.00;99.90
32749;DHT22;19119;52.474;13.710;2023-02-28T09:10:43;5.90;99.90
32749;DHT22;19119;52.474;13.710;2023-02-28T09:13:09;5.90;99.90
32749;DHT22;19119;52.474;13.710;2023-02-28T09:15:37;6.00;99.90
32749;DHT22;19119;52.474;13.710;2023-02-28T09:18:03;6.00;99.90
32749;DHT22;19119;52.474;13.710;2023-02-28T09:20:28;5.80;99.90
32749;DHT22;19119;52.474;13.710;2023-02-28T09:22:54;6.20;99.90
32749;DHT22;19119;52.474;13.710;2023-02-28T09:25:20;6.40;99.90
32749;DHT22;19119;52.474;13.710;2023-02-28T09:27:46;6.50;99.90
32749;DHT22;19119;52.474;13.710;2023-02-28T09:30:12;6.80;99.90
32749;DHT22;19119;52.474;13.710;2023-02-28T09:32:38;6.80;99.90
32749;DHT22;19119;52.474;13.710;2023-02-28T09:35:04;7.30;99.90
32749;DHT22;19119;52.474;13.710;2023-02-28T09:37:30;7.40;99.90
32749;DHT22;19119;52.474;13.710;2023-02-28T09:39:56;7.40;99.90
32749;DHT22;19119;52.474;13.710;2023-02-28T09:42:29;7.90;99.90
32749;DHT22;19119;52.474;13.710;2023-02-28T09:44:56;7.90;99.90
32749;DHT22;19119;52.474;13.710;2023-02-28T09:47:34;8.20;99.90
32749;DHT22;19119;52.474;13.710;2023-02-28T09:52:53;7.40;99.90
32749;DHT22;19119;52.474;13.710;2023-02-28T09:58:00;7.60;99.90
32749;DHT22;19119;52.474;13.710;2023-02-28T10:00:39;7.40;99.90
32749;DHT22;19119;52.474;13.710;2023-02-28T10:03:25;7.20;99.90
32749;DHT22;19119;52.474;13.710;2023-02-28T10:08:50;7.10;99.90
32749;DHT22;19119;52.474;13.710;2023-02-28T10:11:18;7.10;99.60
32749;DHT22;19119;52.474;13.710;2023-02-28T10:13:57;7.40;99.90
32749;DHT22;19119;52.474;13.710;2023-02-28T10:16:33;7.70;99.40
32749;DHT22;19119;52.474;13.710;2023-02-28T10:19:05;7.90;99.90
32749;DHT22;19119;52.474;13.710;2023-02-28T10:24:37;7.80;99.60
32749;DHT22;19119;52.474;13.710;2023-02-28T10:27:20;7.50;99.90
32749;DHT22;19119;52.474;13.710;2023-02-28T10:29:48;7.70;99.30
32749;DHT22;19119;52.474;13.710;2023-02-28T10:32:17;7.90;99.90
32749;DHT22;19119;52.474;13.710;2023-02-28T10:34:44;7.80;99.80
32749;DHT22;19119;52.474;13.710;2023-02-28T10:37:11;8.10;99.90
32749;DHT22;19119;52.474;13.710;2023-02-28T10:39:45;7.70;99.20
32749;DHT22;19119;52.474;13.710;2023-02-28T10:45:16;7.80;99.40
32749;DHT22;19119;52.474;13.710;2023-02-28T10:48:03;7.90;99.00
32749;DHT22;19119;52.474;13.710;2023-02-28T10:56:06;8.10;99.40
32749;DHT22;19119;52.474;13.710;2023-02-28T11:04:00;8.10;99.70
32749;DHT22;19119;52.474;13.710;2023-02-28T11:06:29;8.00;99.10
32749;DHT22;19119;52.474;13.710;2023-02-28T11:09:04;8.10;98.80
32749;DHT22;19119;52.474;13.710;2023-02-28T11:11:42;7.90;99.10
32749;DHT22;19119;52.474;13.710;2023-02-28T11:15:03;7.90;99.10
32749;DHT22;19119;52.474;13.710;2023-02-28T11:17:14;7.80;98.50
32749;DHT22;19119;52.474;13.710;2023-02-28T11:19:50;8.50;98.90
32749;DHT22;19119;52.474;13.710;2023-02-28T11:22:26;8.60;99.00
32749;DHT22;19119;52.474;13.710;2023-02-28T11:24:57;9.00;98.40
32749;DHT22;19119;52.474;13.710;2023-02-28T11:29:56;8.70;97.80
32749;DHT22;19119;52.474;13.710;2023-02-28T11:32:24;9.00;97.90
32749;DHT22;19119;52.474;13.710;2023-02-28T11:37:37;8.40;98.10
32749;DHT22;19119;52.474;13.710;2023-02-28T11:40:13;8.40;97.90
32749;DHT22;19119;52.474;13.710;2023-02-28T12:02:23;8.80;97.30
32749;DHT22;19119;52.474;13.710;2023-02-28T12:08:06;8.40;98.30
32749;DHT22;19119;52.474;13.710;2023-02-28T12:13:55;8.60;98.20
32749;DHT22;19119;52.474;13.710;2023-02-28T12:19:01;8.30;98.20
32749;DHT22;19119;52.474;13.710;2023-02-28T12:21:54;8.40;97.30
32749;DHT22;19119;52.474;13.710;2023-02-28T12:27:16;8.50;97.90
32749;DHT22;19119;52.474;13.710;2023-02-28T12:32:37;8.80;97.20
32749;DHT22;19119;52.474;13.710;2023-02-28T12:35:12;9.10;98.20
32749;DHT22;19119;52.474;13.710;2023-02-28T12:37:51;9.00;96.80
32749;DHT22;19119;52.474;13.710;2023-02-28T12:40:27;9.40;97.20
32749;DHT22;19119;52.474;13.710;2023-02-28T12:42:58;9.10;97.20
32749;DHT22;19119;52.474;13.710;2023-02-28T12:48:09;9.50;97.90
32749;DHT22;19119;52.474;13.710;2023-02-28T12:50:37;9.70;97.50
32749;DHT22;19119;52.474;13.710;2023-02-28T12:53:03;9.90;97.30
32749;DHT22;19119;52.474;13.710;2023-02-28T12:55:48;9.70;96.70
32749;DHT22;19119;52.474;13.710;2023-02-28T13:01:09;10.60;96.50
32749;DHT22;19119;52.474;13.710;2023-02-28T13:09:55;10.80;95.10
32749;DHT22;19119;52.474;13.710;2023-02-28T13:12:22;10.70;96.00
32749;DHT22;19119;52.474;13.710;2023-02-28T13:14:48;10.50;96.20
32749;DHT22;19119;52.474;13.710;2023-02-28T13:17:23;10.40;96.10
32749;DHT22;19119;52.474;13.710;2023-02-28T13:24:56;11.00;94.90
32749;DHT22;19119;52.474;13.710;2023-02-28T13:29:50;11.50;95.30
32749;DHT22;19119;52.474;13.710;2023-02-28T13:32:29;12.70;95.30
32749;DHT22;19119;52.474;13.710;2023-02-28T13:42:49;13.60;93.40
32749;DHT22;19119;52.474;13.710;2023-02-28T13:45:28;14.30;93.40
32749;DHT22;19119;52.474;13.710;2023-02-28T13:48:03;15.70;93.00
32749;DHT22;19119;52.474;13.710;2023-02-28T13:58:37;15.70;91.70
32749;DHT22;19119;52.474;13.710;2023-02-28T14:01:09;15.10;91.50
32749;DHT22;19119;52.474;13.710;2023-02-28T14:06:22;12.40;93.20
32749;DHT22;19119;52.474;13.710;2023-02-28T14:09:25;13.60;92.60
32749;DHT22;19119;52.474;13.710;2023-02-28T14:11:52;11.40;93.00
32749;DHT22;19119;52.474;13.710;2023-02-28T14:17:03;9.00;94.00
32749;DHT22;19119;52.474;13.710;2023-02-28T14:19:31;8.10;94.70
32749;DHT22;19119;52.474;13.710;2023-02-28T14:32:31;11.40;94.40
32749;DHT22;19119;52.474;13.710;2023-02-28T14:37:30;14.80;92.50
32749;DHT22;19119;52.474;13.710;2023-02-28T14:39:59;15.30;92.20
32749;DHT22;19119;52.474;13.710;2023-02-28T14:42:36;13.90;91.40
32749;DHT22;19119;52.474;13.710;2023-02-28T14:45:04;13.90;91.60
32749;DHT22;19119;52.474;13.710;2023-02-28T14:47:34;14.00;91.50
32749;DHT22;19119;52.474;13.710;2023-02-28T14:50:02;15.90;91.90
32749;DHT22;19119;52.474;13.710;2023-02-28T14:52:31;14.90;91.30
32749;DHT22;19119;52.474;13.710;2023-02-28T14:55:00;13.80;91.40
32749;DHT22;19119;52.474;13.710;2023-02-28T14:57:34;12.20;92.20
32749;DHT22;19119;52.474;13.710;2023-02-28T15:00:14;11.60;92.40
32749;DHT22;19119;52.474;13.710;2023-02-28T15:02:42;10.50;93.20
32749;DHT22;19119;52.474;13.710;2023-02-28T15:05:26;10.10;93.20
32749;DHT22;19119;52.474;13.710;2023-02-28T15:08:14;9.20;93.60
32749;DHT22;19119;52.474;13.710;2023-02-28T15:10:53;8.30;93.90
32749;DHT22;19119;52.474;13.710;2023-02-28T15:13:20;8.10;94.60
32749;DHT22;19119;52.474;13.710;2023-02-28T15:15:50;7.60;95.30
32749;DHT22;19119;52.474;13.710;2023-02-28T15:18:38;7.50;95.10
32749;DHT22;19119;52.474;13.710;2023-02-28T15:21:11;7.20;95.60
32749;DHT22;19119;52.474;13.710;2023-02-28T15:23:37;7.20;95.90
32749;DHT22;19119;52.474;13.710;2023-02-28T15:26:05;7.00;95.70
32749;DHT22;19119;52.474;13.710;2023-02-28T15:28:31;6.80;96.10
32749;DHT22;19119;52.474;13.710;2023-02-28T15:31:03;6.80;96.50
32749;DHT22;19119;52.474;13.710;2023-02-28T15:33:58;6.60;96.70
32749;DHT22;19119;52.474;13.710;2023-02-28T15:36:33;6.40;97.00
32749;DHT22;19119;52.474;13.710;2023-02-28T15:39:03;6.30;97.30
32749;DHT22;19119;52.474;13.710;2023-02-28T15:41:36;6.30;96.80
32749;DHT22;19119;52.474;13.710;2023-02-28T15:44:22;6.30;97.30
32749;DHT22;19119;52.474;13.710;2023-02-28T15:47:02;6.30;97.20
32749;DHT22;19119;52.474;13.710;2023-02-28T15:49:44;6.30;97.30
32749;DHT22;19119;52.474;13.710;2023-02-28T15:52:13;6.20;97.40
32749;DHT22;19119;52.474;13.710;2023-02-28T15:54:40;6.00;97.40
32749;DHT22;19119;52.474;13.710;2023-02-28T15:57:14;5.90;97.80
32749;DHT22;19119;52.474;13.710;2023-02-28T15:59:42;5.90;98.10
32749;DHT22;19119;52.474;13.710;2023-02-28T16:02:19;5.80;98.30
32749;DHT22;19119;52.474;13.710;2023-02-28T16:05:13;5.70;98.70
32749;DHT22;19119;52.474;13.710;2023-02-28T16:07:43;5.80;98.50
32749;DHT22;19119;52.474;13.710;2023-02-28T16:10:11;5.60;98.20
32749;DHT22;19119;52.474;13.710;2023-02-28T16:12:39;5.60;98.70
32749;DHT22;19119;52.474;13.710;2023-02-28T16:15:18;5.50;98.80
32749;DHT22;19119;52.474;13.710;2023-02-28T16:17:44;5.40;99.60
32749;DHT22;19119;52.474;13.710;2023-02-28T16:20:15;5.40;99.00
32749;DHT22;19119;52.474;13.710;2023-02-28T16:22:42;5.40;99.50
32749;DHT22;19119;52.474;13.710;2023-02-28T16:25:11;5.30;99.60
32749;DHT22;19119;52.474;13.710;2023-02-28T16:27:37;5.20;99.50
32749;DHT22;19119;52.474;13.710;2023-02-28T16:30:05;5.10;99.80
32749;DHT22;19119;52.474;13.710;2023-02-28T16:32:35;5.00;99.90
32749;DHT22;19119;52.474;13.710;2023-02-28T16:35:02;4.90;99.40
32749;DHT22;19119;52.474;13.710;2023-02-28T16:37:28;4.90;99.60
32749;DHT22;19119;52.474;13.710;2023-02-28T16:39:54;4.90;99.80
32749;DHT22;19119;52.474;13.710;2023-02-28T16:42:27;4.90;99.90
32749;DHT22;19119;52.474;13.710;2023-02-28T16:44:54;4.80;99.90
32749;DHT22;19119;52.474;13.710;2023-02-28T16:47:20;4.80;99.90
32749;DHT22;19119;52.474;13.710;2023-02-28T16:49:46;4.60;99.90
32749;DHT22;19119;52.474;13.710;2023-02-28T16:52:13;4.50;99.90
32749;DHT22;19119;52.474;13.710;2023-02-28T16:54:40;4.40;99.90
32749;DHT22;19119;52.474;13.710;2023-02-28T16:57:13;4.30;99.90
32749;DHT22;19119;52.474;13.710;2023-02-28T16:59:41;4.20;99.90
32749;DHT22;19119;52.474;13.710;2023-02-28T17:02:13;4.00;99.90
32749;DHT22;19119;52.474;13.710;2023-02-28T17:04:39;3.80;99.90
32749;DHT22;19119;52.474;13.710;2023-02-28T17:07:05;3.70;99.90
32749;DHT22;19119;52.474;13.710;2023-02-28T17:09:33;3.60;99.90
32749;DHT22;19119;52.474;13.710;2023-02-28T17:11:58;3.50;99.90
32749;DHT22;19119;52.474;13.710;2023-02-28T17:14:24;3.40;99.90
32749;DHT22;19119;52.474;13.710;2023-02-28T17:16:50;3.40;99.90
32749;DHT22;19119;52.474;13.710;2023-02-28T17:19:16;3.30;99.90
32749;DHT22;19119;52.474;13.710;2023-02-28T17:21:46;3.20;99.90
32749;DHT22;19119;52.474;13.710;2023-02-28T17:24:12;3.10;99.90
32749;DHT22;19119;52.474;13.710;2023-02-28T17:26:39;3.10;99.90
32749;DHT22;19119;52.474;13.710;2023-02-28T17:29:18;3.00;99.90
32749;DHT22;19119;52.474;13.710;2023-02-28T17:31:44;2.80;99.90
32749;DHT22;19119;52.474;13.710;2023-02-28T17:34:09;2.70;99.90
32749;DHT22;19119;52.474;13.710;2023-02-28T17:36:35;2.60;99.90
32749;DHT22;19119;52.474;13.710;2023-02-28T17:39:03;2.40;99.90
32749;DHT22;19119;52.474;13.710;2023-02-28T17:41:29;2.30;99.90
32749;DHT22;19119;52.474;13.710;2023-02-28T17:43:56;2.20;99.90
32749;DHT22;19119;52.474;13.710;2023-02-28T17:46:24;2.20;99.90
32749;DHT22;19119;52.474;13.710;2023-02-28T17:48:51;2.20;99.90
32749;DHT22;19119;52.474;13.710;2023-02-28T17:51:20;2.10;99.90
32749;DHT22;19119;52.474;13.710;2023-02-28T17:53:46;2.10;99.90
32749;DHT22;19119;52.474;13.710;2023-02-28T17:56:14;1.90;99.90
32749;DHT22;19119;52.474;13.710;2023-02-28T17:58:40;1.90;99.90
32749;DHT22;19119;52.474;13.710;2023-02-28T18:01:06;1.90;99.90
32749;DHT22;19119;52.474;13.710;2023-02-28T18:03:32;1.70;99.90
32749;DHT22;19119;52.474;13.710;2023-02-28T18:05:58;1.60;99.90
32749;DHT22;19119;52.474;13.710;2023-02-28T18:08:24;1.60;99.90
32749;DHT22;19119;52.474;13.710;2023-02-28T18:10:50;1.60;99.90
32749;DHT22;19119;52.474;13.710;2023-02-28T18:13:15;1.50;99.90